Aviation Digital Data Service (ADDS)

Output produced by METARs form (0154 UTC 25 February 2018)
found at http://aviationweather.gov/adds/metars/
 
METAR text: KILE 250056Z AUTO 03009KT 10SM CLR 16/15 A2992 RMK AO2 RAE12 SLP145 P0001 T01610150
Conditions at: KILE (KILLEEN MUNI , TX, US) observed 0056 UTC 25 February 2018
Temperature: 16.1°C (61°F)
Dewpoint: 15.0°C (59°F) [RH = 93%]
Pressure (altimeter): 29.92 inches Hg (1013.3 mb)
[Sea-level pressure: 1014.5 mb]
Winds: from the NNE (30 degrees) at 10 MPH (9 knots; 4.7 m/s)
Visibility: 10 or more miles (16+ km)
Ceiling: at least 12,000 feet AGL
Clouds: sky clear below 12,000 feet AGL
Weather: automated observation with no human augmentation;
there may or may not be significant weather present at this time